Time;durP1;ratioP1;P1;durP2;ratioP2;P2;SDS_P1;SDS_P2;PMS_P1;PMS_P2;Temp;Humidity;BMP_temperature;BMP_pressure;BME280_temperature;BME280_humidity;BME280_pressure;Samples;Min_cycle;Max_cycle;Signal;HPM_P1;HPM_P2
2023/05/01 00:02:07;;;;;;;;;2.50;2.50;;;;;13.65;58.73;101837.66;5020776;28;9444;-66
2023/05/01 00:04:34;;;;;;;;;2.00;2.00;;;;;13.68;58.57;101834.59;5009590;28;9465;-68
2023/05/01 00:07:00;;;;;;;;;3.00;3.00;;;;;13.67;58.14;101824.81;5002757;28;9518;-68
2023/05/01 00:09:27;;;;;;;;;6.00;1.00;;;;;13.66;58.34;101832.09;5014987;28;9444;-67
2023/05/01 00:11:53;;;;;;;;;4.75;4.00;;;;;13.66;58.08;101826.69;5000920;28;9403;-66
2023/05/01 00:14:20;;;;;;;;;2.25;2.00;;;;;13.68;57.87;101824.59;4999654;28;9508;-69
2023/05/01 00:16:46;;;;;;;;;4.00;3.00;;;;;13.66;58.04;101818.56;5005821;28;9586;-69
2023/05/01 00:19:17;;;;;;;;;2.25;2.25;;;;;13.64;57.75;101814.34;5013902;28;9470;-69
2023/05/01 00:21:47;;;;;;;;;5.25;2.00;;;;;13.62;57.76;101819.97;5018010;28;9496;-68
2023/05/01 00:24:15;;;;;;;;;1.00;1.00;;;;;13.59;57.78;101820.34;5008951;28;10194;-68
2023/05/01 00:26:43;;;;;;;;;2.75;2.75;;;;;13.52;57.97;101811.28;5014028;28;9571;-68
2023/05/01 00:29:10;;;;;;;;;3.00;3.00;;;;;13.44;57.94;101814.13;4988489;28;9525;-68
2023/05/01 00:31:36;;;;;;;;;5.00;5.00;;;;;13.41;57.97;101806.38;5019172;28;10327;-67
2023/05/01 00:34:04;;;;;;;;;3.00;3.00;;;;;13.44;58.09;101808.72;4997812;28;9540;-67
2023/05/01 00:36:31;;;;;;;;;3.50;3.00;;;;;13.43;58.06;101804.34;5017402;28;9632;-67
2023/05/01 00:38:58;;;;;;;;;5.50;2.00;;;;;13.43;57.99;101802.47;4995647;28;9587;-69
2023/05/01 00:41:24;;;;;;;;;5.25;4.25;;;;;13.42;58.20;101799.97;4995492;28;9534;-68
2023/05/01 00:43:51;;;;;;;;;3.00;3.00;;;;;13.41;58.56;101803.66;5024981;28;9669;-68
2023/05/01 00:46:17;;;;;;;;;3.75;3.75;;;;;13.40;58.43;101796.59;5006462;28;9599;-68
2023/05/01 00:48:44;;;;;;;;;3.00;3.00;;;;;13.36;58.38;101788.84;4999575;28;10348;-68
2023/05/01 00:51:11;;;;;;;;;3.00;3.00;;;;;13.35;58.39;101783.63;5005432;28;9706;-68
2023/05/01 00:53:42;;;;;;;;;2.50;2.50;;;;;13.32;58.44;101778.59;5021940;28;9774;-69
2023/05/01 00:56:10;;;;;;;;;2.00;2.00;;;;;13.29;58.32;101785.25;5002199;28;9766;-68
2023/05/01 00:58:37;;;;;;;;;3.25;2.00;;;;;13.26;58.15;101780.22;4990726;28;9833;-68
2023/05/01 01:01:04;;;;;;;;;2.00;2.00;;;;;13.23;58.31;101777.88;5022432;28;9814;-67
2023/05/01 01:03:30;;;;;;;;;5.00;2.00;;;;;13.19;58.57;101776.53;4987645;28;9522;-68
2023/05/01 01:06:20;;;;;;;;;2.00;2.00;;;;;13.16;58.75;101768.81;5008006;28;9652;-67
2023/05/01 01:09:08;;;;;;;;;3.25;2.75;;;;;13.16;58.58;101767.97;5001283;28;9695;-68
2023/05/01 01:12:14;;;;;;;;;4.00;2.25;;;;;13.11;58.44;101757.72;5015404;28;9730;-69
2023/05/01 01:14:58;;;;;;;;;3.25;3.25;;;;;13.10;58.89;101756.88;5020357;28;9689;-71
2023/05/01 01:17:51;;;;;;;;;5.00;5.00;;;;;13.08;58.98;101750.84;4993922;23;9789;-67
2023/05/01 01:20:29;;;;;;;;;2.50;2.50;;;;;13.05;59.03;101748.50;4972822;28;9860;-66
2023/05/01 01:23:21;;;;;;;;;2.25;2.25;;;;;13.03;59.12;101744.31;5000048;28;9641;-67
2023/05/01 01:26:03;;;;;;;;;2.00;2.00;;;;;12.99;59.00;101738.44;4987607;28;9640;-66
2023/05/01 01:29:00;;;;;;;;;3.25;3.25;;;;;12.96;59.25;101729.88;4973534;28;9716;-67
2023/05/01 01:31:46;;;;;;;;;2.00;2.00;;;;;12.91;59.00;101730.44;4972598;28;9639;-67
2023/05/01 01:34:34;;;;;;;;;4.75;4.00;;;;;12.88;59.19;101725.41;4994731;28;10547;-67
2023/05/01 01:37:21;;;;;;;;;6.00;3.00;;;;;12.83;59.03;101714.31;4967690;28;9770;-67
2023/05/01 01:40:03;;;;;;;;;2.00;2.00;;;;;12.79;59.29;101715.72;4983163;28;9895;-67
2023/05/01 01:42:41;;;;;;;;;4.25;3.50;;;;;12.75;59.50;101707.16;4993894;28;9708;-67
2023/05/01 01:45:16;;;;;;;;;2.25;2.00;;;;;12.73;59.44;101700.28;4991232;28;9847;-67
2023/05/01 01:47:44;;;;;;;;;4.75;4.75;;;;;12.69;59.48;101707.09;4967951;28;9923;-67
2023/05/01 01:50:13;;;;;;;;;6.00;3.00;;;;;12.68;59.37;101697.28;4986920;28;9778;-67
2023/05/01 01:52:44;;;;;;;;;6.25;3.00;;;;;12.65;59.70;101689.56;4997433;28;9871;-67
2023/05/01 01:55:13;;;;;;;;;4.00;4.00;;;;;12.62;59.53;101694.31;4984568;28;9918;-67
2023/05/01 01:57:42;;;;;;;;;4.75;2.00;;;;;12.61;59.66;101694.50;4988254;28;9790;-67
2023/05/01 02:00:11;;;;;;;;;3.25;3.25;;;;;12.59;59.83;101680.34;4965670;28;9923;-67
2023/05/01 02:02:46;;;;;;;;;4.75;4.75;;;;;12.58;59.86;101681.38;4961560;28;9887;-67
2023/05/01 02:05:15;;;;;;;;;4.00;4.00;;;;;12.54;59.95;101680.06;4980660;28;9808;-67
2023/05/01 02:07:45;;;;;;;;;1.75;1.75;;;;;12.52;60.06;101680.25;4979673;28;9923;-67
2023/05/01 02:10:13;;;;;;;;;3.00;3.00;;;;;12.49;59.77;101679.78;4984579;28;9992;-67
2023/05/01 02:12:42;;;;;;;;;4.25;4.25;;;;;12.48;60.19;101670.03;4993088;28;10053;-67
2023/05/01 02:15:09;;;;;;;;;5.50;5.50;;;;;12.46;59.73;101662.09;4988520;28;10038;-67
2023/05/01 02:17:39;;;;;;;;;3.00;3.00;;;;;12.42;59.72;101662.66;4996093;28;10113;-67
2023/05/01 02:20:09;;;;;;;;;5.00;5.00;;;;;12.43;59.79;101661.63;4974058;28;9976;-67
2023/05/01 02:22:38;;;;;;;;;5.00;3.00;;;;;12.39;59.99;101655.75;4981773;28;10168;-67
2023/05/01 02:25:08;;;;;;;;;3.00;3.00;;;;;12.36;59.84;101650.75;5000264;28;10113;-67
2023/05/01 02:27:39;;;;;;;;;2.75;2.75;;;;;12.38;60.09;101651.38;4980967;28;10032;-67
2023/05/01 02:30:06;;;;;;;;;2.50;2.00;;;;;12.38;59.86;101640.59;4967886;28;9955;-67
2023/05/01 02:32:33;;;;;;;;;5.00;5.00;;;;;12.37;59.90;101639.75;4968830;28;9946;-67
2023/05/01 02:35:00;;;;;;;;;2.00;1.75;;;;;12.33;59.58;101626.81;4985814;28;10161;-67
2023/05/01 02:37:27;;;;;;;;;1.75;1.75;;;;;12.31;59.91;101626.97;4982906;28;10111;-67
2023/05/01 02:39:53;;;;;;;;;5.00;5.00;;;;;12.32;59.80;101625.97;4987120;28;10726;-67
2023/05/01 02:42:23;;;;;;;;;2.00;2.00;;;;;12.34;59.85;101629.31;4992763;28;10095;-67
2023/05/01 02:44:56;;;;;;;;;4.75;4.00;;;;;12.33;59.75;101627.66;4982900;28;10012;-67
2023/05/01 02:47:26;;;;;;;;;4.00;4.00;;;;;12.32;59.40;101623.28;4986711;28;10120;-67
2023/05/01 02:49:53;;;;;;;;;4.00;4.00;;;;;12.31;59.57;101612.66;4989984;28;9984;-67
2023/05/01 02:52:21;;;;;;;;;4.25;3.00;;;;;12.31;59.97;101612.66;4994589;28;9869;-67
2023/05/01 02:54:54;;;;;;;;;5.00;2.00;;;;;12.28;59.57;101607.66;4992685;28;10024;-67
2023/05/01 02:57:21;;;;;;;;;5.00;3.00;;;;;12.27;59.82;101601.38;4970502;28;10048;-67
2023/05/01 02:59:48;;;;;;;;;5.25;5.00;;;;;12.26;60.00;101597.00;4986899;28;10189;-67
2023/05/01 03:02:14;;;;;;;;;4.25;4.25;;;;;12.26;59.64;101594.31;4963719;28;10209;-67
2023/05/01 03:04:42;;;;;;;;;4.00;4.00;;;;;12.24;59.75;101590.16;4966657;28;9907;-67
2023/05/01 03:07:09;;;;;;;;;4.50;4.50;;;;;12.21;59.58;101596.75;4970866;28;9947;-67
2023/05/01 03:09:35;;;;;;;;;4.00;2.00;;;;;12.17;59.55;101598.16;4985176;28;9918;-67
2023/05/01 03:12:02;;;;;;;;;4.00;1.00;;;;;12.18;59.92;101605.22;4976507;28;9871;-67
2023/05/01 03:14:29;;;;;;;;;7.00;4.00;;;;;12.16;60.02;101603.75;4973478;28;9853;-67
2023/05/01 03:16:55;;;;;;;;;5.00;5.00;;;;;12.12;59.92;101611.38;4999796;28;10115;-67
2023/05/01 03:19:22;;;;;;;;;4.50;4.50;;;;;12.15;60.00;101605.56;4973336;28;10037;-67
2023/05/01 03:21:48;;;;;;;;;7.00;7.00;;;;;12.15;60.21;101602.88;4974435;28;10626;-68
2023/05/01 03:24:15;;;;;;;;;4.00;4.00;;;;;12.13;59.94;101592.28;4974523;28;10166;-67
2023/05/01 03:26:42;;;;;;;;;4.75;4.75;;;;;12.11;60.14;101588.06;4987595;28;10081;-68
2023/05/01 03:29:09;;;;;;;;;6.50;5.00;;;;;12.09;60.06;101588.28;4975944;28;10153;-68
2023/05/01 03:31:35;;;;;;;;;5.50;2.50;;;;;12.03;60.33;101582.78;4981363;28;10076;-67
2023/05/01 03:34:03;;;;;;;;;3.00;3.00;;;;;12.00;60.16;101586.69;4970287;28;10088;-67
2023/05/01 03:36:32;;;;;;;;;5.75;4.00;;;;;11.96;60.47;101584.56;4977024;28;10027;-67
2023/05/01 03:38:59;;;;;;;;;2.75;2.75;;;;;11.94;60.70;101586.59;4986032;28;10121;-67
2023/05/01 03:41:46;;;;;;;;;2.75;2.00;;;;;11.91;60.96;101582.41;4966623;28;10872;-67
2023/05/01 03:44:22;;;;;;;;;1.75;1.75;;;;;11.87;60.92;101581.13;4968628;28;10016;-67
2023/05/01 03:46:49;;;;;;;;;6.00;4.50;;;;;11.81;60.98;101577.25;4973682;28;10176;-67
2023/05/01 03:49:21;;;;;;;;;5.00;3.00;;;;;11.78;60.95;101572.22;4984058;28;10094;-68
2023/05/01 03:51:48;;;;;;;;;9.00;6.75;;;;;11.75;61.25;101579.81;4972440;28;10075;-67
2023/05/01 03:54:16;;;;;;;;;3.25;3.00;;;;;11.71;61.51;101571.28;4991248;28;10321;-67
2023/05/01 03:56:55;;;;;;;;;6.75;5.75;;;;;11.69;61.48;101570.63;4967271;28;10152;-68
2023/05/01 03:59:21;;;;;;;;;3.00;3.00;;;;;11.66;61.69;101565.59;4969499;28;10254;-67
2023/05/01 04:01:48;;;;;;;;;4.75;4.75;;;;;11.63;61.76;101568.69;4981441;28;10010;-67
2023/05/01 04:04:15;;;;;;;;;3.25;3.25;;;;;11.59;61.71;101564.66;4984937;28;10133;-67
2023/05/01 04:06:48;;;;;;;;;7.25;5.00;;;;;11.56;61.97;101573.94;4967107;28;10125;-67
2023/05/01 04:09:15;;;;;;;;;4.75;3.25;;;;;11.55;62.24;101563.38;4975489;28;10207;-67
2023/05/01 04:11:41;;;;;;;;;3.00;3.00;;;;;11.52;62.27;101556.47;4979675;28;10178;-68
2023/05/01 04:14:07;;;;;;;;;3.00;3.00;;;;;11.51;62.33;101562.06;4980874;28;10002;-68
2023/05/01 04:16:35;;;;;;;;;6.75;5.00;;;;;11.48;62.10;101559.72;4967185;28;10023;-68
2023/05/01 04:19:02;;;;;;;;;6.25;6.00;;;;;11.44;62.49;101564.63;4971106;28;10327;-68
2023/05/01 04:21:31;;;;;;;;;5.00;4.50;;;;;11.41;62.66;101559.59;4976071;28;10271;-68
2023/05/01 04:23:57;;;;;;;;;5.75;4.00;;;;;11.41;62.63;101559.59;4974157;28;10179;-68
2023/05/01 04:26:24;;;;;;;;;4.50;4.50;;;;;11.41;62.94;101559.59;4984800;28;10233;-68
2023/05/01 04:28:51;;;;;;;;;4.50;2.25;;;;;11.42;63.10;101552.34;4969341;28;10110;-68
2023/05/01 04:31:21;;;;;;;;;4.25;4.25;;;;;11.41;62.98;101558.75;4988462;28;10223;-68
2023/05/01 04:33:48;;;;;;;;;3.75;3.75;;;;;11.38;62.67;101552.72;4990941;28;10981;-68
2023/05/01 04:36:14;;;;;;;;;5.25;5.00;;;;;11.37;63.04;101556.41;5002449;28;10449;-68
2023/05/01 04:38:43;;;;;;;;;4.50;4.00;;;;;11.37;63.41;101555.59;4970295;28;10127;-67
2023/05/01 04:41:10;;;;;;;;;5.00;5.00;;;;;11.39;63.52;101554.41;4979018;28;10019;-68
2023/05/01 04:43:37;;;;;;;;;4.75;3.50;;;;;11.39;63.21;101553.56;4988983;28;10146;-69
2023/05/01 04:46:05;;;;;;;;;5.75;5.00;;;;;11.42;63.54;101555.88;4986791;28;10390;-66
2023/05/01 04:48:32;;;;;;;;;6.75;5.75;;;;;11.41;63.61;101556.06;4971416;28;10220;-67
2023/05/01 04:50:59;;;;;;;;;7.00;4.75;;;;;11.40;63.45;101555.22;4977160;28;10341;-67
2023/05/01 04:53:28;;;;;;;;;4.00;4.00;;;;;11.43;63.60;101554.03;4983824;28;10260;-67
2023/05/01 04:55:55;;;;;;;;;8.00;7.00;;;;;11.43;63.93;101552.19;4971132;28;10264;-67
2023/05/01 04:58:22;;;;;;;;;6.75;5.75;;;;;11.45;63.50;101551.97;4989533;28;10263;-67
2023/05/01 05:00:51;;;;;;;;;12.25;10.00;;;;;11.46;64.01;101553.66;4999200;28;10239;-67
2023/05/01 05:03:20;;;;;;;;;8.00;8.00;;;;;11.48;64.07;101551.63;4994778;28;10456;-67
2023/05/01 05:05:47;;;;;;;;;9.00;7.25;;;;;11.53;64.10;101547.34;4970053;28;10256;-67
2023/05/01 05:08:14;;;;;;;;;6.00;5.00;;;;;11.57;63.85;101545.13;4995839;28;10338;-68
2023/05/01 05:10:46;;;;;;;;;5.00;5.00;;;;;11.67;64.16;101558.34;4992610;28;10306;-67
2023/05/01 05:13:20;;;;;;;;;3.00;3.00;;;;;11.70;64.32;101545.31;4987368;28;10293;-67
2023/05/01 05:15:54;;;;;;;;;6.75;6.50;;;;;11.75;64.05;101542.94;4975454;28;10165;-67
2023/05/01 05:18:22;;;;;;;;;8.25;6.50;;;;;11.80;64.13;101545.06;4982371;28;11124;-67
2023/05/01 05:20:49;;;;;;;;;8.75;4.00;;;;;11.83;63.96;101545.56;4975573;28;10366;-67
2023/05/01 05:23:16;;;;;;;;;4.25;4.25;;;;;11.91;64.11;101546.47;4956167;28;10218;-67
2023/05/01 05:25:43;;;;;;;;;2.00;2.00;;;;;11.94;63.82;101544.25;4985597;28;10863;-67
2023/05/01 05:28:09;;;;;;;;;5.00;5.00;;;;;11.96;64.08;101546.78;4983183;28;10135;-67
2023/05/01 05:30:37;;;;;;;;;4.75;4.75;;;;;11.98;64.03;101550.13;4994925;28;10110;-67
2023/05/01 05:33:07;;;;;;;;;5.00;5.00;;;;;11.98;64.09;101545.56;4981963;28;10866;-67
2023/05/01 05:35:35;;;;;;;;;3.00;3.00;;;;;12.02;64.30;101540.63;4995109;28;10173;-67
2023/05/01 05:38:02;;;;;;;;;3.00;3.00;;;;;12.07;64.57;101546.28;4964684;28;10111;-67
2023/05/01 05:40:33;;;;;;;;;3.00;3.00;;;;;12.11;64.38;101536.81;4963573;28;10191;-68
2023/05/01 05:42:59;;;;;;;;;5.25;5.25;;;;;12.15;64.25;101539.97;4991015;28;10244;-68
2023/05/01 05:45:28;;;;;;;;;7.75;6.00;;;;;12.20;63.97;101538.41;4977002;28;10210;-66
2023/05/01 05:47:55;;;;;;;;;3.25;3.25;;;;;12.23;63.99;101537.16;5000008;28;10049;-66
2023/05/01 05:50:24;;;;;;;;;4.25;4.25;;;;;12.25;64.01;101540.53;4967725;28;10006;-67
2023/05/01 05:52:51;;;;;;;;;3.50;2.50;;;;;12.24;63.28;101536.16;4979195;28;10028;-67
2023/05/01 05:55:17;;;;;;;;;8.50;6.75;;;;;12.20;62.59;101526.78;4970617;28;10696;-67
2023/05/01 05:57:57;;;;;;;;;4.25;4.25;;;;;12.19;63.35;101535.88;4974375;28;10094;-67
2023/05/01 06:00:24;;;;;;;;;4.00;4.00;;;;;12.20;62.64;101527.59;4966456;28;9941;-68
2023/05/01 06:02:51;;;;;;;;;3.50;3.50;;;;;12.22;62.17;101525.53;4994356;28;10775;-67
2023/05/01 06:05:19;;;;;;;;;3.00;3.00;;;;;12.24;61.65;101522.66;4984812;28;9962;-66
2023/05/01 06:07:46;;;;;;;;;6.75;5.00;;;;;12.20;61.50;101518.66;4979468;28;10707;-67
2023/05/01 06:10:12;;;;;;;;;2.50;2.50;;;;;12.18;61.47;101520.69;4962104;28;9816;-66
2023/05/01 06:12:40;;;;;;;;;4.00;3.00;;;;;12.23;61.30;101513.72;4982530;28;10020;-66
2023/05/01 06:15:15;;;;;;;;;2.00;2.00;;;;;12.28;61.25;101513.16;4988856;28;9899;-67
2023/05/01 06:17:47;;;;;;;;;3.75;3.75;;;;;12.32;61.29;101514.47;4979117;28;10044;-67
2023/05/01 06:20:13;;;;;;;;;4.50;3.00;;;;;12.32;61.20;101509.91;4970937;28;10058;-68
2023/05/01 06:22:40;;;;;;;;;4.00;4.00;;;;;12.34;61.05;101521.31;4969082;28;10846;-66
2023/05/01 06:25:15;;;;;;;;;3.00;3.00;;;;;12.37;61.16;101526.34;4967338;28;10159;-67
2023/05/01 06:27:41;;;;;;;;;4.00;2.00;;;;;12.42;61.26;101516.84;4951422;28;9776;-66
2023/05/01 06:30:08;;;;;;;;;5.00;4.75;;;;;12.44;61.14;101520.22;4967556;28;9785;-67
2023/05/01 06:32:40;;;;;;;;;3.50;3.50;;;;;12.46;61.15;101515.44;4971890;28;9781;-67
2023/05/01 06:35:07;;;;;;;;;6.25;2.50;;;;;12.51;61.31;101515.69;4975127;28;9967;-66
2023/05/01 06:37:37;;;;;;;;;3.00;3.00;;;;;12.54;61.20;101509.94;4987371;28;9790;-67
2023/05/01 06:40:07;;;;;;;;;3.75;2.75;;;;;12.57;61.25;101504.16;5000285;28;10816;-67
2023/05/01 06:42:35;;;;;;;;;2.50;2.50;;;;;12.60;61.00;101517.28;4968067;28;9956;-67
2023/05/01 06:45:02;;;;;;;;;3.00;3.00;;;;;12.65;60.95;101519.41;4968892;28;9928;-66
2023/05/01 06:47:30;;;;;;;;;5.00;5.00;;;;;12.67;60.75;101517.34;4972813;28;9795;-67
2023/05/01 06:49:56;;;;;;;;;3.50;3.00;;;;;12.68;60.20;101514.47;4970521;28;10647;-67
2023/05/01 06:52:23;;;;;;;;;1.75;1.75;;;;;12.68;60.36;101510.88;4970545;28;10009;-67
2023/05/01 06:54:50;;;;;;;;;2.00;2.00;;;;;12.76;60.38;101517.03;4986661;28;9712;-67
2023/05/01 06:57:16;;;;;;;;;5.00;4.00;;;;;12.79;60.19;101513.09;4984283;28;9715;-67
2023/05/01 06:59:44;;;;;;;;;4.50;2.00;;;;;12.83;60.15;101511.69;4967305;28;9798;-67
2023/05/01 07:02:10;;;;;;;;;3.25;3.25;;;;;12.87;60.13;101511.09;4952192;28;9704;-66
2023/05/01 07:04:37;;;;;;;;;3.25;3.25;;;;;12.90;60.08;101517.16;4951709;28;10644;-67
2023/05/01 07:07:03;;;;;;;;;3.00;3.00;;;;;12.94;60.00;101521.16;4951920;28;9745;-67
2023/05/01 07:09:30;;;;;;;;;4.75;2.50;;;;;12.93;59.85;101516.78;4951975;28;9708;-66
2023/05/01 07:11:57;;;;;;;;;6.00;5.00;;;;;12.90;59.68;101522.56;4956165;28;9544;-67
2023/05/01 07:14:23;;;;;;;;;5.50;5.50;;;;;12.83;59.41;101520.63;4951756;28;9723;-67
2023/05/01 07:16:50;;;;;;;;;2.75;2.75;;;;;12.79;59.76;101511.22;4987365;23;9742;-66
2023/05/01 07:19:16;;;;;;;;;5.00;4.00;;;;;12.77;59.82;101516.00;4974111;28;9597;-67
2023/05/01 07:21:43;;;;;;;;;3.25;3.25;;;;;12.79;60.26;101511.22;4991480;28;10310;-67
2023/05/01 07:24:11;;;;;;;;;4.00;3.00;;;;;12.86;60.02;101517.53;4990981;28;9543;-67
2023/05/01 07:26:37;;;;;;;;;2.75;2.75;;;;;12.91;59.72;101516.13;4991043;28;9676;-67
2023/05/01 07:29:04;;;;;;;;;8.00;6.25;;;;;12.87;59.45;101511.09;4987915;28;9470;-66
2023/05/01 07:31:30;;;;;;;;;4.50;3.50;;;;;12.82;59.62;101508.16;4989446;28;9678;-67
2023/05/01 07:33:57;;;;;;;;;4.25;4.00;;;;;12.81;60.11;101508.34;4989044;28;10417;-67
2023/05/01 07:36:23;;;;;;;;;4.50;4.25;;;;;12.85;60.30;101501.53;4987606;28;9629;-67
2023/05/01 07:38:50;;;;;;;;;4.00;4.00;;;;;12.94;60.15;101507.63;4972692;28;10493;-67
2023/05/01 07:41:16;;;;;;;;;5.00;5.00;;;;;13.02;59.70;101502.09;4953915;28;10356;-67
2023/05/01 07:43:43;;;;;;;;;4.00;4.00;;;;;13.01;59.27;101505.84;4971298;28;9651;-67
2023/05/01 07:46:09;;;;;;;;;7.50;5.25;;;;;13.02;58.85;101502.09;4970725;28;9791;-67
2023/05/01 07:48:36;;;;;;;;;5.00;5.00;;;;;13.11;58.84;101500.94;4972668;28;9807;-67
2023/05/01 07:51:04;;;;;;;;;9.00;4.75;;;;;13.21;58.59;101500.59;4979042;28;9522;-67
2023/05/01 07:53:31;;;;;;;;;3.00;3.00;;;;;13.24;58.94;101501.06;4990720;28;9587;-67
2023/05/01 07:56:08;;;;;;;;;5.50;5.50;;;;;13.28;58.10;101504.22;4993506;28;9667;-67
2023/05/01 07:58:35;;;;;;;;;3.25;3.25;;;;;13.29;57.64;101504.03;4994692;28;9807;-66
2023/05/01 08:01:02;;;;;;;;;4.50;4.50;;;;;13.39;57.18;101511.78;4994488;28;10459;-67
2023/05/01 08:03:29;;;;;;;;;6.00;2.00;;;;;13.46;57.51;101503.75;4994599;28;9610;-67
2023/05/01 08:05:56;;;;;;;;;4.50;3.00;;;;;13.51;57.77;101509.38;4977392;28;9637;-67
2023/05/01 08:08:23;;;;;;;;;2.00;2.00;;;;;13.51;58.70;101506.69;4990608;28;9653;-67
2023/05/01 08:10:50;;;;;;;;;3.50;3.50;;;;;13.52;58.72;101505.63;4994635;28;9513;-67
2023/05/01 08:13:17;;;;;;;;;7.00;6.25;;;;;13.56;58.67;101505.03;4991717;28;9607;-67
2023/05/01 08:15:45;;;;;;;;;2.25;2.25;;;;;13.59;58.62;101507.38;4989180;28;9750;-65
2023/05/01 08:18:18;;;;;;;;;2.50;2.50;;;;;13.66;58.19;101510.13;4992962;28;9639;-65
2023/05/01 08:20:48;;;;;;;;;3.00;3.00;;;;;13.70;57.86;101511.41;4976391;28;9556;-65
2023/05/01 08:23:15;;;;;;;;;2.00;2.00;;;;;13.73;57.98;101507.44;4988332;28;10438;-66
2023/05/01 08:25:42;;;;;;;;;3.00;3.00;;;;;13.76;57.55;101510.59;4992718;28;9611;-66
2023/05/01 08:28:09;;;;;;;;;5.75;5.50;;;;;13.79;57.03;101506.66;4992894;28;9553;-66
2023/05/01 08:30:35;;;;;;;;;5.50;2.75;;;;;13.79;57.30;101514.78;4992713;28;9782;-66
2023/05/01 08:33:02;;;;;;;;;3.50;2.25;;;;;13.87;57.11;101511.91;4991763;28;9505;-65
2023/05/01 08:35:29;;;;;;;;;4.00;4.00;;;;;13.90;57.15;101510.69;4973012;28;9570;-66
2023/05/01 08:37:55;;;;;;;;;2.00;2.00;;;;;13.93;57.06;101504.84;4972836;28;9437;-65
2023/05/01 08:40:24;;;;;;;;;3.00;3.00;;;;;13.98;56.82;101507.81;4972973;28;9492;-66
2023/05/01 08:42:51;;;;;;;;;4.75;4.75;;;;;14.03;56.88;101513.47;4993552;28;9475;-66
2023/05/01 08:45:20;;;;;;;;;3.00;2.00;;;;;14.06;57.81;101515.78;4992126;28;9576;-66
2023/05/01 08:47:47;;;;;;;;;2.50;2.25;;;;;14.16;57.51;101516.22;4989150;28;9570;-66
2023/05/01 08:50:16;;;;;;;;;3.00;3.00;;;;;14.26;57.35;101515.84;4974210;28;9543;-66
2023/05/01 08:52:43;;;;;;;;;3.00;3.00;;;;;14.34;57.23;101513.81;4974113;28;10139;-66
2023/05/01 08:55:12;;;;;;;;;3.25;3.25;;;;;14.35;56.15;101510.06;4972335;28;9548;-66
2023/05/01 08:57:44;;;;;;;;;3.00;3.00;;;;;14.35;55.29;101509.22;4973886;28;9469;-66
2023/05/01 09:00:17;;;;;;;;;3.00;3.00;;;;;14.36;55.55;101513.59;4972625;28;9461;-65
2023/05/01 09:02:45;;;;;;;;;4.50;2.50;;;;;14.39;55.07;101515.06;4973790;28;10131;-65
2023/05/01 09:05:14;;;;;;;;;5.00;5.00;;;;;14.40;54.07;101511.31;4975791;28;9606;-65
2023/05/01 09:07:42;;;;;;;;;4.50;4.50;;;;;14.40;53.55;101514.03;4973120;28;10185;-66
2023/05/01 09:10:14;;;;;;;;;2.00;2.00;;;;;14.44;53.52;101512.59;4973657;28;9453;-66
2023/05/01 09:12:44;;;;;;;;;2.00;2.00;;;;;14.48;53.30;101513.84;4973662;28;9234;-66
2023/05/01 09:15:11;;;;;;;;;4.25;3.00;;;;;14.58;52.94;101517.03;4973467;28;9333;-66
2023/05/01 09:17:39;;;;;;;;;6.33;5.00;;;;;14.61;50.31;101516.63;4973264;28;9479;-66
2023/05/01 09:20:06;;;;;;;;;5.00;5.00;;;;;14.69;49.05;101510.19;4973555;28;9882;-66
2023/05/01 09:22:34;;;;;;;;;7.00;7.00;;;;;14.78;49.83;101514.38;4996471;28;9439;-67
2023/05/01 09:25:01;;;;;;;;;3.00;3.00;;;;;15.00;50.11;101520.47;5012062;28;9365;-67
2023/05/01 09:27:32;;;;;;;;;5.33;3.00;;;;;15.27;50.15;101521.28;5011122;28;9230;-67
2023/05/01 09:29:59;;;;;;;;;1.00;1.00;;;;;15.59;49.68;101519.59;4994737;28;9210;-67
2023/05/01 09:32:29;;;;;;;;;3.33;3.33;;;;;15.68;48.80;101525.69;5011137;28;9043;-66
2023/05/01 09:35:12;;;;;;;;;3.33;3.33;;;;;15.71;49.04;101534.22;5007684;28;9173;-67
2023/05/01 09:37:38;;;;;;;;;2.67;2.67;;;;;15.79;48.73;101523.16;4973995;28;8995;-67
2023/05/01 09:40:09;;;;;;;;;4.67;4.67;;;;;15.95;48.16;101521.84;5010784;28;8919;-67
2023/05/01 09:42:38;;;;;;;;;6.00;6.00;;;;;15.99;47.73;101524.97;5010930;28;9079;-66
2023/05/01 09:45:11;;;;;;;;;6.00;6.00;;;;;15.92;47.18;101525.03;5011770;28;9078;-68
2023/05/01 09:47:38;;;;;;;;;2.33;2.33;;;;;15.86;47.31;101531.28;5012113;28;9718;-67
2023/05/01 09:50:05;;;;;;;;;4.67;2.00;;;;;15.79;46.63;101531.28;4999639;28;9148;-68
2023/05/01 09:52:32;;;;;;;;;3.67;3.67;;;;;15.79;47.76;101535.88;4992234;28;9155;-68
2023/05/01 09:55:15;;;;;;;;;2.50;1.00;;;;;15.86;48.46;101531.28;4992256;28;9015;-67
2023/05/01 09:57:44;;;;;;;;;2.33;2.33;;;;;15.92;48.46;101540.44;4992180;28;9107;-66
2023/05/01 10:00:13;;;;;;;;;4.00;2.67;;;;;15.95;47.92;101532.72;4991075;28;8982;-66
2023/05/01 10:02:44;;;;;;;;;4.50;2.00;;;;;16.05;48.62;101535.84;4992476;28;8996;-66
2023/05/01 10:05:12;;;;;;;;;5.67;4.00;;;;;16.22;47.61;101543.53;4977423;28;8843;-66
2023/05/01 10:07:56;;;;;;;;;2.00;2.00;;;;;16.30;47.52;101544.09;4972132;28;9024;-66
2023/05/01 10:10:23;;;;;;;;;2.67;2.67;;;;;16.34;47.56;101541.78;4972307;28;8851;-67
2023/05/01 10:12:50;;;;;;;;;3.00;3.00;;;;;16.29;46.84;101545.16;4972295;28;9068;-66
2023/05/01 10:15:17;;;;;;;;;7.00;6.00;;;;;16.24;47.88;101542.22;4974411;28;8993;-66
2023/05/01 10:17:52;;;;;;;;;4.33;1.67;;;;;16.27;48.08;101543.69;4970229;28;9073;-66
2023/05/01 10:20:20;;;;;;;;;3.67;2.00;;;;;16.38;48.34;101551.19;4991900;28;8998;-65
2023/05/01 10:22:47;;;;;;;;;4.00;4.00;;;;;16.45;48.39;101553.88;4991553;28;8925;-66
2023/05/01 10:25:16;;;;;;;;;4.33;4.33;;;;;16.46;48.46;101553.66;4988648;28;9803;-66
2023/05/01 10:27:42;;;;;;;;;6.67;6.00;;;;;16.42;48.84;101549.72;4975145;28;9021;-65
2023/05/01 10:30:10;;;;;;;;;7.00;6.00;;;;;16.45;48.18;101564.75;4981974;28;9154;-65
2023/05/01 10:32:39;;;;;;;;;3.00;3.00;;;;;16.43;48.83;101556.81;4992045;28;9085;-66
2023/05/01 10:35:11;;;;;;;;;5.00;5.00;;;;;16.48;48.58;101553.44;4992212;28;9123;-66
2023/05/01 10:37:44;;;;;;;;;2.33;2.00;;;;;16.57;48.84;101568.47;4991556;28;8920;-65
2023/05/01 10:40:39;;;;;;;;;3.00;3.00;;;;;16.64;47.73;101565.69;4990498;28;8912;-65
2023/05/01 10:43:16;;;;;;;;;3.00;1.33;;;;;16.62;47.26;101554.22;4989834;28;8991;-66
2023/05/01 10:45:45;;;;;;;;;3.33;3.00;;;;;16.58;46.91;101567.41;4970716;28;9151;-65
2023/05/01 10:48:32;;;;;;;;;3.00;2.75;;;;;16.56;46.18;101564.88;4970403;28;9009;-65
2023/05/01 10:51:11;;;;;;;;;4.00;3.67;;;;;16.50;46.70;101568.47;4971402;28;8842;-66
2023/05/01 10:53:39;;;;;;;;;5.00;5.00;;;;;16.45;46.40;101564.75;4954137;28;9042;-65
2023/05/01 10:56:26;;;;;;;;;2.00;2.00;;;;;16.40;46.64;101559.94;4970976;28;9027;-66
2023/05/01 10:58:55;;;;;;;;;5.67;5.67;;;;;16.32;46.39;101561.00;4976016;28;8908;-67
2023/05/01 11:01:41;;;;;;;;;3.00;3.00;;;;;16.30;46.75;101565.00;4991219;28;9061;-65
2023/05/01 11:04:46;;;;;;;;;5.67;5.00;;;;;16.26;47.20;101564.59;4990972;28;9028;-65
2023/05/01 11:07:13;;;;;;;;;11.67;10.00;;;;;16.12;48.52;101562.97;4973743;28;9187;-66
2023/05/01 11:09:44;;;;;;;;;9.33;8.33;;;;;16.07;48.61;101565.50;4991632;28;9186;-66
2023/05/01 11:12:34;;;;;;;;;6.00;6.00;;;;;16.11;49.55;101568.63;4986658;28;9228;-65
2023/05/01 11:15:02;;;;;;;;;6.33;6.00;;;;;16.13;48.44;101566.53;4989889;28;9235;-65
2023/05/01 11:17:38;;;;;;;;;2.67;2.67;;;;;16.07;47.13;101568.22;4971540;28;9240;-66
2023/05/01 11:20:29;;;;;;;;;5.00;3.67;;;;;16.07;47.33;101569.03;4970240;28;9113;-66
2023/05/01 11:22:56;;;;;;;;;6.00;6.00;;;;;16.08;46.72;101572.59;4971547;28;9026;-66
2023/05/01 11:25:29;;;;;;;;;7.00;5.00;;;;;16.09;46.90;101571.56;4971104;28;9200;-67
2023/05/01 11:27:59;;;;;;;;;5.67;4.00;;;;;16.05;46.84;101576.56;4970241;28;9191;-66
2023/05/01 11:30:35;;;;;;;;;4.67;4.67;;;;;15.93;46.22;101577.44;4980234;28;9094;-67
2023/05/01 11:33:03;;;;;;;;;5.00;5.00;;;;;15.86;47.43;101576.63;4991603;28;8990;-67
2023/05/01 11:35:31;;;;;;;;;5.67;5.67;;;;;15.76;48.12;101580.59;4990901;28;9065;-67
2023/05/01 11:37:57;;;;;;;;;5.00;3.67;;;;;15.72;48.97;101578.53;4989507;28;9052;-67
2023/05/01 11:40:29;;;;;;;;;6.33;5.00;;;;;15.71;51.01;101574.94;4989558;28;9143;-67
2023/05/01 11:43:08;;;;;;;;;6.00;6.00;;;;;15.74;51.88;101573.69;4990640;28;9358;-67